TJBQ/BQN METAR and TAF weather

Enter ICAO airport designator
Station Type Date Time Source
TJBQ METAR 2022/06/25 21:50 UTC NOAA

TJBQ 252150Z 11008KT 10SM BKN022 BNK027 OVC048 27/23 A2998 RMK LTG DSNT SE


Station Type Date Time Source
TJBQ Decoded METAR 2022/06/25 21:50 UTC NOAA

Aquadilla, Rafael Hernandez Airport, PR, United States (TJBQ) 18-30N 067-08W 69M
Jun 25, 2022 - 05:50 PM EDT / 2022.06.25 2150 UTC
Wind: from the ESE (110 degrees) at 9 MPH (8 KT):0
Visibility: 10 mile(s):0
Sky conditions: overcast
Weather: Lightning observed
Temperature: 80 F (27 C)
Dew Point: 73 F (23 C)
Relative Humidity: 78%
Pressure (altimeter): 29.98 in. Hg (1015 hPa)
ob: TJBQ 252150Z 11008KT 10SM BKN022 BNK027 OVC048 27/23 A2998 RMK LTG DSNT SE
cycle: 22

Station Type Date Time Source
TJBQ TAF 2022/06/25 22:09 UTC NOAA

TAF
AMD TJBQ 252205Z 2522/2618 11010KT P6SM VCSH SCT025 BKN050
TEMPO 2522/2523 VRB10KT 4SM -SHRA BKN025
FM252300 10008KT P6SM VCSH FEW022 SCT060
FM260200 13004KT P6SM SKC
FM261400 07015KT P6SM FEW035
AMD NOT SKED 2602/2611

Example: see airport list